Time;durP1;ratioP1;P1;durP2;ratioP2;P2;SDS_P1;SDS_P2;PMS_P1;PMS_P2;Temp;Humidity;BMP_temperature;BMP_pressure;BME280_temperature;BME280_humidity;BME280_pressure;Samples;Min_cycle;Max_cycle;Signal;HPM_P1;HPM_P2
2022/10/15 00:00:59;;;;;;;;;;;;;;;;;;5059212;28;20028;-66
2022/10/15 00:03:25;;;;;;;25.33;17.15;;;;;;;;;;5063995;28;19912;-66
2022/10/15 00:05:51;;;;;;;;;;;;;;;;;;5061041;28;20032;-66
2022/10/15 00:08:17;;;;;;;22.65;14.85;;;;;;;;;;5063765;28;19915;-66
2022/10/15 00:10:43;;;;;;;;;;;;;;;;;;5056931;28;20024;-66
2022/10/15 00:13:09;;;;;;;17.77;11.02;;;;;;;;;;5064178;28;19912;-67
2022/10/15 00:15:36;;;;;;;;;;;;;;;;;;5061183;28;20997;-67
2022/10/15 00:18:02;;;;;;;15.73;7.93;;;;;;;;;;5058163;28;19995;-68
2022/10/15 00:20:28;;;;;;;;;;;;;;;;;;5060261;28;20030;-67
2022/10/15 00:22:54;;;;;;;12.68;6.10;;;;;;;;;;5060594;28;19994;-67
2022/10/15 00:25:20;;;;;;;;;;;;;;;;;;5064999;28;20028;-66
2022/10/15 00:27:46;;;;;;;11.15;5.45;;;;;;;;;;5059616;28;19957;-67
2022/10/15 00:30:12;;;;;;;;;;;;;;;;;;5063334;28;20071;-66
2022/10/15 00:32:38;;;;;;;12.88;5.30;;;;;;;;;;5055828;28;20006;-67
2022/10/15 00:35:05;;;;;;;9.93;5.15;;;;;;;;;;5062078;28;20036;-65
2022/10/15 00:37:31;;;;;;;13.45;5.00;;;;;;;;;;5059937;28;20683;-67
2022/10/15 00:39:57;;;;;;;;;;;;;;;;;;5063809;28;20032;-67
2022/10/15 00:42:23;;;;;;;13.15;5.18;;;;;;;;;;5061526;28;19956;-65
2022/10/15 00:44:51;;;;;;;11.27;5.55;;;;;;;;;;5054154;28;20043;-66
2022/10/15 00:47:26;;;;;;;10.50;5.20;;;;;;;;;;5063046;28;20034;-68
2022/10/15 00:50:00;;;;;;;12.73;5.40;;;;;;;;;;5058965;28;20028;-67
2022/10/15 00:52:32;;;;;;;10.52;4.85;;;;;;;;;;5063734;28;20024;-67
2022/10/15 00:55:17;;;;;;;9.50;5.22;;;;;;;;;;5060356;28;20043;-66
2022/10/15 00:57:44;;;;;;;9.93;4.75;;;;;;;;;;5060123;28;20725;-67
2022/10/15 01:00:11;;;;;;;10.40;4.50;;;;;;;;;;5065499;28;20032;-66
2022/10/15 01:02:37;;;;;;;9.50;4.25;;;;;;;;;;5057917;28;20386;-67
2022/10/15 01:05:03;;;;;;;;;;;;;;;;;;5059543;28;20313;-65
2022/10/15 01:07:29;;;;;;;8.43;3.65;;;;;;;;;;5059912;28;19985;-66
2022/10/15 01:09:55;;;;;;;;;;;;;;;;;;5062986;28;20024;-66
2022/10/15 01:12:40;;;;;;;8.25;3.30;;;;;;;;;;5056125;28;19908;-65
2022/10/15 01:15:11;;;;;;;8.50;3.28;;;;;;;;;;5062796;28;20486;-66
2022/10/15 01:17:42;;;;;;;8.20;2.83;;;;;;;;;;5062996;28;20032;-65
2022/10/15 01:20:27;;;;;;;9.00;2.90;;;;;;;;;;5060216;28;20126;-65
2022/10/15 01:22:56;;;;;;;8.07;2.60;;;;;;;;;;5060099;28;20166;-67
2022/10/15 01:25:28;;;;;;;9.35;2.58;;;;;;;;;;5061758;28;20072;-65
2022/10/15 01:27:57;;;;;;;7.20;2.50;;;;;;;;;;5058783;28;20040;-65
2022/10/15 01:30:23;;;;;;;8.43;2.60;;;;;;;;;;5063186;28;20027;-65
2022/10/15 01:33:00;;;;;;;9.52;2.60;;;;;;;;;;5055021;28;20421;-66
2022/10/15 01:35:32;;;;;;;9.93;2.60;;;;;;;;;;5065275;28;20089;-67
2022/10/15 01:38:17;;;;;;;6.15;2.05;;;;;;;;;;5065456;28;20465;-65
2022/10/15 01:41:00;;;;;;;6.60;2.22;;;;;;;;;;5055065;28;20016;-67
2022/10/15 01:43:36;;;;;;;7.85;2.08;;;;;;;;;;5062154;28;20027;-67
2022/10/15 01:46:06;;;;;;;7.07;2.35;;;;;;;;;;5064033;28;20172;-65
2022/10/15 01:48:33;;;;;;;9.48;2.13;;;;;;;;;;5053549;28;20084;-66
2022/10/15 01:51:01;;;;;;;6.82;2.05;;;;;;;;;;5068166;28;20531;-66
2022/10/15 01:53:28;;;;;;;9.93;2.38;;;;;;;;;;5063452;28;20032;-65
2022/10/15 01:55:57;;;;;;;9.65;2.50;;;;;;;;;;5060294;28;20028;-66
2022/10/15 01:58:24;;;;;;;7.20;2.42;;;;;;;;;;5061994;28;21780;-67
2022/10/15 02:00:51;;;;;;;6.60;2.33;;;;;;;;;;5060372;28;20086;-67
2022/10/15 02:03:17;;;;;;;9.32;2.63;;;;;;;;;;5058110;28;20439;-66
2022/10/15 02:05:43;;;;;;;;;;;;;;;;;;5066126;28;20401;-65
2022/10/15 02:08:20;;;;;;;9.32;2.88;;;;;;;;;;5065571;28;20015;-65
2022/10/15 02:10:58;;;;;;;8.23;2.45;;;;;;;;;;5068239;28;20027;-65
2022/10/15 02:13:31;;;;;;;11.32;2.90;;;;;;;;;;5063406;28;20036;-67
2022/10/15 02:16:06;;;;;;;7.97;2.70;;;;;;;;;;5068323;28;20028;-66
2022/10/15 02:18:47;;;;;;;8.57;3.10;;;;;;;;;;5061051;28;20299;-68
2022/10/15 02:21:18;;;;;;;9.43;3.10;;;;;;;;;;5065585;28;20028;-66
2022/10/15 02:23:52;;;;;;;6.97;2.80;;;;;;;;;;5058471;28;20207;-66
2022/10/15 02:26:19;;;;;;;8.80;3.15;;;;;;;;;;5070128;28;20031;-65
2022/10/15 02:28:49;;;;;;;9.98;3.22;;;;;;;;;;5060635;28;20406;-66
2022/10/15 02:31:16;;;;;;;7.60;3.05;;;;;;;;;;5070657;28;20556;-66
2022/10/15 02:33:43;;;;;;;8.80;3.05;;;;;;;;;;5063126;28;20059;-66
2022/10/15 02:36:10;;;;;;;8.23;3.10;;;;;;;;;;5059882;28;20485;-66
2022/10/15 02:38:37;;;;;;;8.07;3.22;;;;;;;;;;5058867;28;20131;-65
2022/10/15 02:41:03;;;;;;;9.10;3.25;;;;;;;;;;5063385;28;20025;-65
2022/10/15 02:43:30;;;;;;;9.75;3.30;;;;;;;;;;5061025;28;20035;-67
2022/10/15 02:45:56;;;;;;;8.55;3.10;;;;;;;;;;5063225;28;20065;-67
2022/10/15 02:48:22;;;;;;;8.82;3.58;;;;;;;;;;5060749;28;20384;-66
2022/10/15 02:50:48;;;;;;;;;;;;;;;;;;5063786;28;20037;-65
2022/10/15 02:53:14;;;;;;;10.43;3.40;;;;;;;;;;5060474;28;21243;-66
2022/10/15 02:55:40;;;;;;;;;;;;;;;;;;5056686;28;20032;-66
2022/10/15 02:58:06;;;;;;;7.55;3.30;;;;;;;;;;5067905;28;19950;-66
2022/10/15 03:00:32;;;;;;;;;;;;;;;;;;5060414;28;20032;-66
2022/10/15 03:02:58;;;;;;;9.90;3.75;;;;;;;;;;5066233;28;19918;-66
2022/10/15 03:05:24;;;;;;;;;;;;;;;;;;5070477;28;20440;-66
2022/10/15 03:07:50;;;;;;;11.75;3.45;;;;;;;;;;5066032;28;19943;-65
2022/10/15 03:10:16;;;;;;;;;;;;;;;;;;5066859;28;20081;-65
2022/10/15 03:12:42;;;;;;;9.68;3.40;;;;;;;;;;5061168;28;20305;-66
2022/10/15 03:15:08;;;;;;;;;;;;;;;;;;5060744;28;20064;-67
2022/10/15 03:17:34;;;;;;;9.38;3.00;;;;;;;;;;5060486;28;19923;-67
2022/10/15 03:20:01;;;;;;;8.20;3.10;;;;;;;;;;5065256;28;20027;-65
2022/10/15 03:22:27;;;;;;;;;;;;;;;;;;5070482;28;20487;-66
2022/10/15 03:24:53;;;;;;;8.57;3.22;;;;;;;;;;5057475;28;19922;-66
2022/10/15 03:27:19;;;;;;;10.48;3.38;;;;;;;;;;5065661;28;20066;-66
2022/10/15 03:29:45;;;;;;;;;;;;;;;;;;5064542;28;20040;-66
2022/10/15 03:32:11;;;;;;;8.27;3.00;;;;;;;;;;5065054;28;20364;-67
2022/10/15 03:34:37;;;;;;;9.70;3.67;;;;;;;;;;5057771;28;20434;-68
2022/10/15 03:37:03;;;;;;;;;;;;;;;;;;5064766;28;20607;-67
2022/10/15 03:39:29;;;;;;;12.10;3.63;;;;;;;;;;5064761;28;20010;-66
2022/10/15 03:41:55;;;;;;;;;;;;;;;;;;5062788;28;20115;-67
2022/10/15 03:44:21;;;;;;;9.35;3.67;;;;;;;;;;5062596;28;19916;-67
2022/10/15 03:46:47;;;;;;;;;;;;;;;;;;5059490;28;20039;-67
2022/10/15 03:49:13;;;;;;;10.30;3.78;;;;;;;;;;5062281;28;19912;-67
2022/10/15 03:51:39;;;;;;;11.65;4.35;;;;;;;;;;5055740;28;20035;-65
2022/10/15 03:54:05;;;;;;;;;;;;;;;;;;5067759;28;20029;-66
2022/10/15 03:56:31;;;;;;;11.27;4.00;;;;;;;;;;5059182;28;19924;-67
2022/10/15 03:58:57;;;;;;;13.07;4.38;;;;;;;;;;5062438;28;20023;-67
2022/10/15 04:01:23;;;;;;;10.38;4.35;;;;;;;;;;5065433;28;20386;-66
2022/10/15 04:03:53;;;;;;;9.15;3.97;;;;;;;;;;5061025;28;20032;-66
2022/10/15 04:06:19;;;;;;;9.80;3.92;;;;;;;;;;5064023;28;20039;-66
2022/10/15 04:08:45;;;;;;;9.70;4.13;;;;;;;;;;5054011;28;20028;-65
2022/10/15 04:11:12;;;;;;;10.93;4.20;;;;;;;;;;5060404;28;20686;-66
2022/10/15 04:13:38;;;;;;;10.32;4.07;;;;;;;;;;5058670;28;20046;-66
2022/10/15 04:16:04;;;;;;;11.75;4.50;;;;;;;;;;5062365;28;20062;-66
2022/10/15 04:18:31;;;;;;;11.73;3.90;;;;;;;;;;5061006;28;20432;-68
2022/10/15 04:21:00;;;;;;;11.05;4.00;;;;;;;;;;5063152;28;20410;-66
2022/10/15 04:23:26;;;;;;;9.32;4.28;;;;;;;;;;5061908;28;20027;-65
2022/10/15 04:25:52;;;;;;;;;;;;;;;;;;5057517;28;20040;-66
2022/10/15 04:28:18;;;;;;;9.10;3.70;;;;;;;;;;5064249;28;20226;-67
2022/10/15 04:30:44;;;;;;;9.77;3.72;;;;;;;;;;5057116;28;20454;-66
2022/10/15 04:33:10;;;;;;;10.32;3.85;;;;;;;;;;5057093;28;20535;-65
2022/10/15 04:35:36;;;;;;;8.48;3.50;;;;;;;;;;5057441;28;20147;-65
2022/10/15 04:38:03;;;;;;;10.05;3.97;;;;;;;;;;5058952;28;20414;-68
2022/10/15 04:40:28;;;;;;;;;;;;;;;;;;5051224;28;20420;-65
2022/10/15 04:42:55;;;;;;;9.10;3.65;;;;;;;;;;5054489;28;20599;-65
2022/10/15 04:45:21;;;;;;;10.02;3.47;;;;;;;;;;5053494;28;20108;-66
2022/10/15 04:47:47;;;;;;;10.23;3.70;;;;;;;;;;5048873;28;20046;-66
2022/10/15 04:50:13;;;;;;;;;;;;;;;;;;5058503;28;20183;-66
2022/10/15 04:52:39;;;;;;;10.55;3.45;;;;;;;;;;5052653;28;19912;-66
2022/10/15 04:55:05;;;;;;;;;;;;;;;;;;5055550;28;20028;-66
2022/10/15 04:57:31;;;;;;;9.73;3.30;;;;;;;;;;5052947;28;19912;-67
2022/10/15 04:59:57;;;;;;;9.32;3.15;;;;;;;;;;5058141;28;20550;-66
2022/10/15 05:02:23;;;;;;;9.60;3.33;;;;;;;;;;5051998;28;20747;-66
2022/10/15 05:04:49;;;;;;;;;;;;;;;;;;5060543;28;20036;-67
2022/10/15 05:07:15;;;;;;;11.48;3.10;;;;;;;;;;5057143;28;19908;-65
2022/10/15 05:09:41;;;;;;;;;;;;;;;;;;5055993;28;20054;-65
2022/10/15 05:12:07;;;;;;;8.88;3.10;;;;;;;;;;5060244;28;20347;-66
2022/10/15 05:14:34;;;;;;;7.70;3.40;;;;;;;;;;5053457;28;20115;-65
2022/10/15 05:17:00;;;;;;;8.75;3.33;;;;;;;;;;5058495;28;20412;-67
2022/10/15 05:19:26;;;;;;;9.00;3.28;;;;;;;;;;5058794;28;20109;-67
2022/10/15 05:21:52;;;;;;;;;;;;;;;;;;5052233;28;20445;-67
2022/10/15 05:24:18;;;;;;;7.97;3.03;;;;;;;;;;5051770;28;19919;-65
2022/10/15 05:26:44;;;;;;;8.45;3.33;;;;;;;;;;5057856;28;20025;-66
2022/10/15 05:29:11;;;;;;;8.38;3.00;;;;;;;;;;5060704;28;20394;-66
2022/10/15 05:31:37;;;;;;;;;;;;;;;;;;5051570;28;20644;-65
2022/10/15 05:34:07;;;;;;;9.60;3.38;;;;;;;;;;5057708;28;19920;-66
2022/10/15 05:36:33;;;;;;;7.80;3.38;;;;;;;;;;5049893;28;20118;-67
2022/10/15 05:39:01;;;;;;;8.57;3.50;;;;;;;;;;5053102;28;20462;-66
2022/10/15 05:41:27;;;;;;;8.85;3.00;;;;;;;;;;5055544;28;20115;-67
2022/10/15 05:43:54;;;;;;;10.20;2.95;;;;;;;;;;5052298;28;20047;-67
2022/10/15 05:46:20;;;;;;;8.85;3.30;;;;;;;;;;5056199;28;20430;-66
2022/10/15 05:48:46;;;;;;;;;;;;;;;;;;5055114;28;20087;-66
2022/10/15 05:51:12;;;;;;;9.77;3.22;;;;;;;;;;5058382;28;19958;-67
2022/10/15 05:53:39;;;;;;;;;;;;;;;;;;5055032;28;20111;-66
2022/10/15 05:56:06;;;;;;;8.48;3.40;;;;;;;;;;5055115;28;20295;-66
2022/10/15 05:58:33;;;;;;;9.18;3.28;;;;;;;;;;5051729;28;20441;-66
2022/10/15 06:01:00;;;;;;;8.45;3.20;;;;;;;;;;5060829;28;20012;-66
2022/10/15 06:03:27;;;;;;;9.50;3.70;;;;;;;;;;5061738;28;20731;-65
2022/10/15 06:05:53;;;;;;;9.68;3.63;;;;;;;;;;5051834;28;20064;-66
2022/10/15 06:08:19;;;;;;;9.88;3.47;;;;;;;;;;5060172;28;20020;-66
2022/10/15 06:10:46;;;;;;;9.82;3.10;;;;;;;;;;5060345;28;20407;-67
2022/10/15 06:13:12;;;;;;;10.05;3.47;;;;;;;;;;5065627;28;20030;-66
2022/10/15 06:15:39;;;;;;;10.25;3.20;;;;;;;;;;5060073;28;20040;-67
2022/10/15 06:18:06;;;;;;;10.90;3.25;;;;;;;;;;5057850;28;20808;-67
2022/10/15 06:20:32;;;;;;;10.10;3.00;;;;;;;;;;5060469;28;20024;-66
2022/10/15 06:22:59;;;;;;;10.32;3.70;;;;;;;;;;5060509;28;20573;-67
2022/10/15 06:25:25;;;;;;;10.90;3.25;;;;;;;;;;5062723;28;20522;-67
2022/10/15 06:27:52;;;;;;;9.68;3.50;;;;;;;;;;5057710;28;20101;-66
2022/10/15 06:30:18;;;;;;;9.75;4.43;;;;;;;;;;5064521;28;20061;-66
2022/10/15 06:32:48;;;;;;;10.82;3.50;;;;;;;;;;5055127;28;20145;-67
2022/10/15 06:35:15;;;;;;;11.23;3.55;;;;;;;;;;5064636;28;20040;-66
2022/10/15 06:37:41;;;;;;;10.38;3.53;;;;;;;;;;5056899;28;20028;-65
2022/10/15 06:40:07;;;;;;;9.00;3.38;;;;;;;;;;5059924;28;20049;-66
2022/10/15 06:42:34;;;;;;;10.85;3.70;;;;;;;;;;5056752;28;20032;-66
2022/10/15 06:45:00;;;;;;;11.13;3.75;;;;;;;;;;5061114;28;20111;-66
2022/10/15 06:47:26;;;;;;;;;;;;;;;;;;5060594;28;20024;-66
2022/10/15 06:49:52;;;;;;;13.25;6.78;;;;;;;;;;5063665;28;19935;-66
2022/10/15 06:52:18;;;;;;;;;;;;;;;;;;5063848;28;20580;-66
2022/10/15 06:54:44;;;;;;;17.35;8.95;;;;;;;;;;5060507;28;19912;-67
2022/10/15 06:57:10;;;;;;;;;;;;;;;;;;5068529;28;20043;-66
2022/10/15 06:59:36;;;;;;;23.95;13.98;;;;;;;;;;5059651;28;20340;-67
2022/10/15 07:02:02;;;;;;;26.02;11.85;;;;;;;;;;5065387;28;20055;-66
2022/10/15 07:04:28;;;;;;;21.70;11.02;;;;;;;;;;5068190;28;20030;-66
2022/10/15 07:06:54;;;;;;;;;;;;;;;;;;5067596;28;20424;-66
2022/10/15 07:09:20;;;;;;;20.08;9.80;;;;;;;;;;5068002;28;19912;-66
2022/10/15 07:11:46;;;;;;;;;;;;;;;;;;5061732;28;20054;-66
2022/10/15 07:14:12;;;;;;;19.73;7.32;;;;;;;;;;5065081;28;20011;-67
2022/10/15 07:16:38;;;;;;;;;;;;;;;;;;5060519;28;20469;-66
2022/10/15 07:19:05;;;;;;;21.13;9.55;;;;;;;;;;5064845;28;19919;-67
2022/10/15 07:21:31;;;;;;;18.05;9.70;;;;;;;;;;5064292;28;20032;-65
2022/10/15 07:23:58;;;;;;;19.67;9.85;;;;;;;;;;5069212;28;20252;-67
2022/10/15 07:26:24;;;;;;;23.10;10.45;;;;;;;;;;5064156;28;20055;-66
2022/10/15 07:28:50;;;;;;;;;;;;;;;;;;5063437;28;20487;-66
2022/10/15 07:31:16;;;;;;;20.73;10.27;;;;;;;;;;5064365;28;19918;-65
2022/10/15 07:33:42;;;;;;;19.27;10.25;;;;;;;;;;5060398;28;20112;-66
2022/10/15 07:36:11;;;;;;;21.75;10.50;;;;;;;;;;5060705;28;20486;-67
2022/10/15 07:38:39;;;;;;;20.08;9.88;;;;;;;;;;5066268;28;20052;-67
2022/10/15 07:41:06;;;;;;;18.48;8.77;;;;;;;;;;5059338;28;20657;-67
2022/10/15 07:43:33;;;;;;;16.38;7.88;;;;;;;;;;5058269;28;20028;-66
2022/10/15 07:45:59;;;;;;;13.65;6.20;;;;;;;;;;5064750;28;20078;-67
2022/10/15 07:48:25;;;;;;;13.07;5.05;;;;;;;;;;5062472;28;20892;-66
2022/10/15 07:50:55;;;;;;;16.95;5.47;;;;;;;;;;5061463;28;20089;-67
2022/10/15 07:53:21;;;;;;;13.10;5.35;;;;;;;;;;5067095;28;20024;-68
2022/10/15 07:55:47;;;;;;;14.52;5.90;;;;;;;;;;5057337;28;20039;-67
2022/10/15 07:58:13;;;;;;;;;;;;;;;;;;5066465;28;20820;-67
2022/10/15 08:00:39;;;;;;;21.25;13.75;;;;;;;;;;5061022;28;19919;-67
2022/10/15 08:03:05;;;;;;;19.15;9.57;;;;;;;;;;5063614;28;20046;-67
2022/10/15 08:05:31;;;;;;;;;;;;;;;;;;5062528;28;20032;-68
2022/10/15 08:07:57;;;;;;;15.80;7.05;;;;;;;;;;5065793;28;19916;-66
2022/10/15 08:10:24;;;;;;;13.20;5.88;;;;;;;;;;5061773;28;20124;-67
2022/10/15 08:12:50;;;;;;;16.40;5.18;;;;;;;;;;5058131;28;20031;-66
2022/10/15 08:15:19;;;;;;;21.73;8.30;;;;;;;;;;5060468;28;20040;-67
2022/10/15 08:17:45;;;;;;;22.55;10.82;;;;;;;;;;5060870;28;20287;-66
2022/10/15 08:20:12;;;;;;;31.00;19.60;;;;;;;;;;5066821;28;20034;-66
2022/10/15 08:22:38;;;;;;;29.60;19.17;;;;;;;;;;5059044;28;20681;-67
2022/10/15 08:25:04;;;;;;;26.63;14.90;;;;;;;;;;5061523;28;20054;-66
2022/10/15 08:27:30;;;;;;;19.20;11.57;;;;;;;;;;5055533;28;20443;-66
2022/10/15 08:29:56;;;;;;;18.80;9.65;;;;;;;;;;5063492;28;20085;-67
2022/10/15 08:32:22;;;;;;;16.27;7.50;;;;;;;;;;5057078;28;20040;-66
2022/10/15 08:34:48;;;;;;;21.52;7.07;;;;;;;;;;5057552;28;20671;-67
2022/10/15 08:37:15;;;;;;;18.00;7.20;;;;;;;;;;5062501;28;20055;-67
2022/10/15 08:39:41;;;;;;;17.30;9.23;;;;;;;;;;5066766;28;20060;-68
2022/10/15 08:42:14;;;;;;;20.27;9.35;;;;;;;;;;5067145;28;20480;-68
2022/10/15 08:45:06;;;;;;;17.63;8.07;;;;;;;;;;5058548;28;20268;-68
2022/10/15 08:47:42;;;;;;;14.50;5.05;;;;;;;;;;5052247;28;20144;-66
2022/10/15 08:50:26;;;;;;;16.58;5.63;;;;;;;;;;5062125;28;20032;-66
2022/10/15 08:52:53;;;;;;;13.60;5.28;;;;;;;;;;5059853;28;20500;-66
2022/10/15 08:55:20;;;;;;;16.23;5.88;;;;;;;;;;5063674;28;20385;-68
2022/10/15 08:57:56;;;;;;;15.68;6.40;;;;;;;;;;5057045;28;20024;-68
2022/10/15 09:00:24;;;;;;;12.38;5.40;;;;;;;;;;5061669;28;20026;-68
2022/10/15 09:02:54;;;;;;;14.50;5.60;;;;;;;;;;5054995;28;20028;-66
2022/10/15 09:05:30;;;;;;;16.67;6.45;;;;;;;;;;5060231;28;20032;-67
2022/10/15 09:08:11;;;;;;;14.82;6.18;;;;;;;;;;5064037;28;20312;-66
2022/10/15 09:10:47;;;;;;;13.82;6.00;;;;;;;;;;5057070;28;20429;-66
2022/10/15 09:13:13;;;;;;;17.17;6.72;;;;;;;;;;5055472;28;20142;-66
2022/10/15 09:16:05;;;;;;;14.70;5.55;;;;;;;;;;5063012;28;20040;-68
2022/10/15 09:18:33;;;;;;;15.10;6.10;;;;;;;;;;5052133;28;20041;-66
2022/10/15 09:21:01;;;;;;;14.98;6.22;;;;;;;;;;5058230;28;20394;-67
2022/10/15 09:23:31;;;;;;;13.15;5.75;;;;;;;;;;5055984;28;20023;-66
2022/10/15 09:25:59;;;;;;;16.60;6.70;;;;;;;;;;5060333;28;20039;-66
2022/10/15 09:28:29;;;;;;;16.63;6.28;;;;;;;;;;5058903;28;20379;-66
2022/10/15 09:30:56;;;;;;;14.73;6.00;;;;;;;;;;5062090;28;20027;-67
2022/10/15 09:33:33;;;;;;;13.55;5.75;;;;;;;;;;5050921;28;20390;-66
2022/10/15 09:36:13;;;;;;;14.48;4.53;;;;;;;;;;5058855;28;20113;-68
2022/10/15 09:38:39;;;;;;;13.45;6.20;;;;;;;;;;5051439;28;20351;-66
2022/10/15 09:41:05;;;;;;;10.40;4.25;;;;;;;;;;5059345;28;20059;-66
2022/10/15 09:43:35;;;;;;;11.65;4.10;;;;;;;;;;5058547;28;20016;-66
2022/10/15 09:46:02;;;;;;;9.95;3.40;;;;;;;;;;5054787;28;20040;-67
2022/10/15 09:48:31;;;;;;;12.93;2.97;;;;;;;;;;5050702;28;20032;-66
2022/10/15 09:50:57;;;;;;;11.60;4.25;;;;;;;;;;5056857;28;20062;-66
2022/10/15 09:53:30;;;;;;;9.77;3.72;;;;;;;;;;5048559;28;20028;-68
2022/10/15 09:55:56;;;;;;;14.60;3.65;;;;;;;;;;5058678;28;20035;-67
2022/10/15 09:58:33;;;;;;;10.85;4.30;;;;;;;;;;5050431;28;20309;-67
2022/10/15 10:01:00;;;;;;;11.40;4.60;;;;;;;;;;5061499;28;20029;-66
2022/10/15 10:03:28;;;;;;;15.80;5.95;;;;;;;;;;5062235;28;20028;-66
2022/10/15 10:05:58;;;;;;;19.73;7.60;;;;;;;;;;5058460;28;20044;-68
2022/10/15 10:08:27;;;;;;;14.63;4.88;;;;;;;;;;5054787;28;20032;-66
2022/10/15 10:10:55;;;;;;;11.32;3.70;;;;;;;;;;5050550;28;20085;-67
2022/10/15 10:13:25;;;;;;;12.60;4.30;;;;;;;;;;5060805;28;20060;-68
2022/10/15 10:15:54;;;;;;;11.90;3.95;;;;;;;;;;5055173;28;20028;-67
2022/10/15 10:18:21;;;;;;;13.43;4.00;;;;;;;;;;5059906;28;20120;-68
2022/10/15 10:20:59;;;;;;;10.70;3.40;;;;;;;;;;5051910;28;20024;-68
2022/10/15 10:23:30;;;;;;;11.07;3.75;;;;;;;;;;5058296;28;20355;-67
2022/10/15 10:25:58;;;;;;;10.63;3.08;;;;;;;;;;5059360;28;20059;-66
2022/10/15 10:28:27;;;;;;;11.57;3.88;;;;;;;;;;5056707;28;20266;-67
2022/10/15 10:30:53;;;;;;;14.90;4.18;;;;;;;;;;5058521;28;20019;-67
2022/10/15 10:33:40;;;;;;;11.65;3.75;;;;;;;;;;5061068;28;20751;-68
2022/10/15 10:36:07;;;;;;;8.40;3.13;;;;;;;;;;5047344;28;20504;-67
2022/10/15 10:38:34;;;;;;;10.18;3.20;;;;;;;;;;5054135;28;20025;-67
2022/10/15 10:41:08;;;;;;;9.23;2.88;;;;;;;;;;5055997;28;20403;-67
2022/10/15 10:43:51;;;;;;;8.77;2.83;;;;;;;;;;5062905;28;20359;-68
2022/10/15 10:46:19;;;;;;;6.50;1.98;;;;;;;;;;5056180;28;20032;-66
2022/10/15 10:48:49;;;;;;;8.40;1.98;;;;;;;;;;5048648;28;20051;-66
2022/10/15 10:51:15;;;;;;;7.43;1.80;;;;;;;;;;5066768;28;20110;-68
2022/10/15 10:53:46;;;;;;;9.38;2.08;;;;;;;;;;5053023;28;20055;-68
2022/10/15 10:56:14;;;;;;;10.13;2.00;;;;;;;;;;5058459;28;20041;-68
2022/10/15 10:58:40;;;;;;;5.60;1.52;;;;;;;;;;5055258;28;20476;-67
2022/10/15 11:01:10;;;;;;;9.52;1.73;;;;;;;;;;5052990;28;20548;-68
2022/10/15 11:03:38;;;;;;;8.75;2.20;;;;;;;;;;5056252;28;20015;-67
2022/10/15 11:06:16;;;;;;;8.70;1.77;;;;;;;;;;5055352;28;20051;-68
2022/10/15 11:08:45;;;;;;;7.28;1.70;;;;;;;;;;5058026;28;20046;-68
2022/10/15 11:11:17;;;;;;;9.77;1.90;;;;;;;;;;5065379;28;20036;-68
2022/10/15 11:13:56;;;;;;;8.25;2.03;;;;;;;;;;5055187;28;20059;-67
2022/10/15 11:16:30;;;;;;;7.70;1.80;;;;;;;;;;5060417;28;20064;-67
2022/10/15 11:18:59;;;;;;;9.05;2.03;;;;;;;;;;5058232;28;20533;-68
2022/10/15 11:21:28;;;;;;;7.18;1.85;;;;;;;;;;5054959;28;20610;-67
2022/10/15 11:24:00;;;;;;;9.48;1.60;;;;;;;;;;5058176;28;20030;-67
2022/10/15 11:26:32;;;;;;;9.10;1.73;;;;;;;;;;5058219;28;20557;-68
2022/10/15 11:29:17;;;;;;;8.85;1.80;;;;;;;;;;5055318;28;20031;-66
2022/10/15 11:31:49;;;;;;;7.17;1.90;;;;;;;;;;5055614;28;20439;-68
2022/10/15 11:34:28;;;;;;;6.53;1.50;;;;;;;;;;5058466;28;20149;-68
2022/10/15 11:37:09;;;;;;;13.55;1.83;;;;;;;;;;5054938;28;20408;-68
2022/10/15 11:39:41;;;;;;;7.30;1.67;;;;;;;;;;5054030;28;20766;-68
2022/10/15 11:42:14;;;;;;;6.82;1.58;;;;;;;;;;5056536;28;20024;-68
2022/10/15 11:44:46;;;;;;;7.97;1.60;;;;;;;;;;5060854;28;20273;-66
2022/10/15 11:47:35;;;;;;;7.68;1.92;;;;;;;;;;5060940;28;20230;-67
2022/10/15 11:50:19;;;;;;;9.90;1.80;;;;;;;;;;5061337;28;20054;-67
2022/10/15 11:52:54;;;;;;;6.38;1.52;;;;;;;;;;5053554;28;20024;-68
2022/10/15 11:55:32;;;;;;;4.88;1.25;;;;;;;;;;5056551;28;20051;-68
2022/10/15 11:57:59;;;;;;;7.13;1.70;;;;;;;;;;5057888;28;20127;-68
2022/10/15 12:00:34;;;;;;;7.63;1.70;;;;;;;;;;5056771;28;20074;-68
2022/10/15 12:03:23;;;;;;;7.50;1.80;;;;;;;;;;5062138;28;20032;-68
2022/10/15 12:05:53;;;;;;;6.60;1.63;;;;;;;;;;5050552;28;20052;-66
2022/10/15 12:08:20;;;;;;;8.93;1.80;;;;;;;;;;5062653;28;20028;-67
2022/10/15 12:10:53;;;;;;;7.57;1.52;;;;;;;;;;5056391;28;20107;-67
2022/10/15 12:13:31;;;;;;;8.20;1.58;;;;;;;;;;5064908;28;20036;-68
2022/10/15 12:16:08;;;;;;;7.82;1.85;;;;;;;;;;5056037;28;20437;-68
2022/10/15 12:18:57;;;;;;;9.45;1.50;;;;;;;;;;5058443;28;20024;-68
2022/10/15 12:21:32;;;;;;;7.18;1.65;;;;;;;;;;5054428;28;20043;-68
2022/10/15 12:23:58;;;;;;;7.57;1.70;;;;;;;;;;5055478;28;20030;-68
2022/10/15 12:26:24;;;;;;;10.93;1.77;;;;;;;;;;5059441;28;20024;-67
2022/10/15 12:28:51;;;;;;;8.45;1.40;;;;;;;;;;5048136;28;20027;-68
2022/10/15 12:31:19;;;;;;;8.20;1.40;;;;;;;;;;5060199;28;20028;-68
2022/10/15 12:33:53;;;;;;;5.70;1.27;;;;;;;;;;5050770;28;20048;-68
2022/10/15 12:36:21;;;;;;;6.75;1.35;;;;;;;;;;5056175;28;20881;-68
2022/10/15 12:39:01;;;;;;;8.45;1.70;;;;;;;;;;5056075;28;20050;-68
2022/10/15 12:41:35;;;;;;;6.47;1.88;;;;;;;;;;5058986;28;20043;-67
2022/10/15 12:44:20;;;;;;;6.90;1.85;;;;;;;;;;5059354;28;20103;-67
2022/10/15 12:46:46;;;;;;;7.97;1.55;;;;;;;;;;5047717;28;20039;-69
2022/10/15 12:49:31;;;;;;;5.20;1.63;;;;;;;;;;5051241;28;20466;-67
2022/10/15 12:51:57;;;;;;;10.07;1.33;;;;;;;;;;5057994;28;20478;-68
2022/10/15 12:54:35;;;;;;;7.00;1.40;;;;;;;;;;5060941;28;20269;-68
2022/10/15 12:57:03;;;;;;;6.47;1.38;;;;;;;;;;5052198;28;20093;-67
2022/10/15 12:59:45;;;;;;;8.02;1.60;;;;;;;;;;5054227;28;20702;-68
2022/10/15 13:02:30;;;;;;;5.38;1.30;;;;;;;;;;5059876;28;20063;-68
2022/10/15 13:04:57;;;;;;;6.80;1.50;;;;;;;;;;5054918;28;20040;-69
2022/10/15 13:07:23;;;;;;;9.38;1.52;;;;;;;;;;5056212;28;20032;-68
2022/10/15 13:09:49;;;;;;;7.38;1.40;;;;;;;;;;5055867;28;20494;-67
2022/10/15 13:12:34;;;;;;;7.22;2.00;;;;;;;;;;5061547;28;20024;-68
2022/10/15 13:15:06;;;;;;;5.78;1.77;;;;;;;;;;5058860;28;20201;-67
2022/10/15 13:17:32;;;;;;;7.55;1.70;;;;;;;;;;5052545;28;20020;-68
2022/10/15 13:20:01;;;;;;;7.00;1.40;;;;;;;;;;5057150;28;20473;-67
2022/10/15 13:22:32;;;;;;;7.00;1.55;;;;;;;;;;5052424;28;20061;-67
2022/10/15 13:24:59;;;;;;;7.95;1.73;;;;;;;;;;5049969;28;20059;-68
2022/10/15 13:27:38;;;;;;;8.05;1.50;;;;;;;;;;5057529;28;20360;-67
2022/10/15 13:30:12;;;;;;;6.40;1.67;;;;;;;;;;5063458;28;20028;-67
2022/10/15 13:32:55;;;;;;;6.50;1.30;;;;;;;;;;5051453;28;20047;-68
2022/10/15 13:35:33;;;;;;;5.53;1.45;;;;;;;;;;5055628;28;20459;-68
2022/10/15 13:38:00;;;;;;;7.55;1.60;;;;;;;;;;5053727;28;20023;-68
2022/10/15 13:40:27;;;;;;;6.68;1.45;;;;;;;;;;5053328;28;20019;-68
2022/10/15 13:43:15;;;;;;;5.85;1.40;;;;;;;;;;5050528;28;20142;-68
2022/10/15 13:45:46;;;;;;;6.68;1.25;;;;;;;;;;5047429;28;20043;-68
2022/10/15 13:48:12;;;;;;;5.60;1.30;;;;;;;;;;5053217;28;20562;-67
2022/10/15 13:50:39;;;;;;;6.03;1.30;;;;;;;;;;5048667;28;20036;-67
2022/10/15 13:53:08;;;;;;;6.80;1.52;;;;;;;;;;5050504;28;20032;-67
2022/10/15 13:55:36;;;;;;;7.38;1.50;;;;;;;;;;5042584;28;20313;-67
2022/10/15 13:58:14;;;;;;;5.47;1.27;;;;;;;;;;5044950;28;20584;-68
2022/10/15 14:00:41;;;;;;;5.65;1.20;;;;;;;;;;5046265;28;20069;-68
2022/10/15 14:03:15;;;;;;;6.10;1.23;;;;;;;;;;5047680;28;20139;-67
2022/10/15 14:05:42;;;;;;;5.53;1.23;;;;;;;;;;5050141;28;20046;-67
2022/10/15 14:08:31;;;;;;;7.70;2.10;;;;;;;;;;5052102;28;20492;-67
2022/10/15 14:10:58;;;;;;;5.80;1.48;;;;;;;;;;5043819;28;20706;-67
2022/10/15 14:13:25;;;;;;;5.72;1.30;;;;;;;;;;5049808;28;21436;-68
2022/10/15 14:16:12;;;;;;;4.32;1.30;;;;;;;;;;5051598;28;20035;-69
2022/10/15 14:18:40;;;;;;;6.88;1.52;;;;;;;;;;5049509;28;20028;-67
2022/10/15 14:21:13;;;;;;;6.78;1.48;;;;;;;;;;5058473;28;20097;-68
2022/10/15 14:23:41;;;;;;;7.25;1.42;;;;;;;;;;5054914;28;20383;-71
2022/10/15 14:26:09;;;;;;;5.80;1.33;;;;;;;;;;5049276;28;20063;-70
2022/10/15 14:28:36;;;;;;;6.65;1.30;;;;;;;;;;5050979;28;20035;-69
2022/10/15 14:31:03;;;;;;;8.75;1.52;;;;;;;;;;5051203;28;20494;-70
2022/10/15 14:33:40;;;;;;;5.80;1.25;;;;;;;;;;5048257;28;20075;-70
2022/10/15 14:36:18;;;;;;;7.25;1.58;;;;;;;;;;5061400;28;20461;-70
2022/10/15 14:38:45;;;;;;;6.60;1.30;;;;;;;;;;5050963;28;20278;-70
2022/10/15 14:41:30;;;;;;;6.65;1.50;;;;;;;;;;5057202;28;20064;-68
2022/10/15 14:44:26;;;;;;;5.20;1.52;;;;;;;;;;5052458;28;20020;-70
2022/10/15 14:46:59;;;;;;;5.40;1.40;;;;;;;;;;4969270;28;20076;-70
2022/10/15 14:49:33;;;;;;;6.97;1.45;;;;;;;;;;4972269;28;20819;-70
2022/10/15 14:52:03;;;;;;;6.40;1.53;;;;;;;;;;4974479;28;20057;-71
2022/10/15 14:54:37;;;;;;;6.45;1.40;;;;;;;;;;4971070;28;20026;-70
2022/10/15 14:57:04;;;;;;;6.35;1.20;;;;;;;;;;4974361;28;20042;-71
2022/10/15 14:59:32;;;;;;;7.50;1.48;;;;;;;;;;4969562;28;20038;-69
2022/10/15 15:01:59;;;;;;;6.47;1.20;;;;;;;;;;4971122;28;20064;-70
2022/10/15 15:04:33;;;;;;;4.40;1.20;;;;;;;;;;4973090;28;20116;-69